Time;durP1;ratioP1;P1;durP2;ratioP2;P2;SDS_P1;SDS_P2;PMS_P1;PMS_P2;Temp;Humidity;BMP_temperature;BMP_pressure;BME280_temperature;BME280_humidity;BME280_pressure;Samples;Min_cycle;Max_cycle;Signal;HPM_P1;HPM_P2
2021/04/30 00:00:43;;;;;;;6.78;2.55;;;;;;;7.72;60.12;101110.00;5033200;28;20503;-48
2021/04/30 00:03:16;;;;;;;5.70;2.60;;;;;;;7.71;60.46;101100.09;5032823;28;20441;-48
2021/04/30 00:05:43;;;;;;;8.30;4.32;;;;;;;7.69;60.39;101109.81;5033612;28;20072;-46
2021/04/30 00:08:09;;;;;;;4.35;2.63;;;;;;;7.63;60.47;101108.31;5033307;28;20034;-46
2021/04/30 00:10:36;;;;;;;3.08;2.30;;;;;;;7.59;60.75;101102.66;5033096;28;20095;-44
2021/04/30 00:13:02;;;;;;;3.33;2.22;;;;;;;7.57;60.70;101099.38;5033178;28;20054;-48
2021/04/30 00:15:28;;;;;;;5.88;3.20;;;;;;;7.55;60.67;101107.16;5033170;28;20132;-45
2021/04/30 00:17:55;;;;;;;6.88;2.60;;;;;;;7.49;61.05;101100.16;5032657;28;20069;-50
2021/04/30 00:20:21;;;;;;;3.83;2.70;;;;;;;7.45;61.24;101090.91;5032160;28;20154;-46
2021/04/30 00:22:47;;;;;;;4.05;2.20;;;;;;;7.41;61.44;101092.66;5015647;28;20099;-49
2021/04/30 00:25:14;;;;;;;3.85;2.85;;;;;;;7.39;61.26;101092.16;5032810;28;20537;-48
2021/04/30 00:27:40;;;;;;;2.47;2.05;;;;;;;7.33;61.13;101104.44;5032082;28;20045;-47
2021/04/30 00:30:07;;;;;;;3.78;2.10;;;;;;;7.29;61.14;101093.25;5032298;28;20081;-52
2021/04/30 00:32:34;;;;;;;9.60;2.67;;;;;;;7.22;61.70;101097.56;5032691;28;20049;-53
2021/04/30 00:35:02;;;;;;;4.95;2.05;;;;;;;7.17;61.66;101094.94;5033365;28;20048;-47
2021/04/30 00:37:29;;;;;;;5.72;2.47;;;;;;;7.16;61.61;101096.06;5032122;28;20049;-48
2021/04/30 00:39:55;;;;;;;6.55;3.42;;;;;;;7.10;61.54;101089.06;5032744;28;20060;-45
2021/04/30 00:42:22;;;;;;;5.30;2.67;;;;;;;7.07;61.79;101095.22;5031928;28;20095;-44
2021/04/30 00:44:48;;;;;;;4.75;2.78;;;;;;;7.05;61.80;101086.44;5032439;28;20076;-47
2021/04/30 00:47:30;;;;;;;5.47;3.05;;;;;;;6.97;62.26;101092.69;5032357;28;20124;-45
2021/04/30 00:49:59;;;;;;;5.75;3.08;;;;;;;6.94;62.23;101088.63;5031694;28;20219;-44
2021/04/30 00:52:26;;;;;;;6.65;2.80;;;;;;;6.92;61.89;101092.81;5031658;28;20053;-45
2021/04/30 00:54:52;;;;;;;5.15;2.85;;;;;;;6.93;62.24;101094.44;5032197;28;20073;-45
2021/04/30 00:57:18;;;;;;;7.05;3.22;;;;;;;6.91;62.23;101096.72;5031854;28;20069;-46
2021/04/30 00:59:45;;;;;;;5.10;2.85;;;;;;;6.93;62.11;101094.44;5031852;28;20041;-48
2021/04/30 01:02:13;;;;;;;6.80;2.80;;;;;;;6.90;61.85;101089.56;5032251;28;20045;-45
2021/04/30 01:04:40;;;;;;;3.67;2.30;;;;;;;6.87;62.12;101092.94;5032445;28;20612;-45
2021/04/30 01:07:09;;;;;;;3.38;2.30;;;;;;;6.86;62.00;101088.56;5031321;28;20038;-45
2021/04/30 01:09:36;;;;;;;3.30;2.00;;;;;;;6.80;62.33;101092.56;5032072;28;20111;-44
2021/04/30 01:12:04;;;;;;;5.93;2.85;;;;;;;6.74;62.46;101089.13;5031928;28;20081;-45
2021/04/30 01:14:32;;;;;;;4.35;2.50;;;;;;;6.68;62.61;101082.91;5031567;28;20083;-46
2021/04/30 01:16:58;;;;;;;4.78;2.08;;;;;;;6.68;62.75;101087.59;5032336;28;20053;-45
2021/04/30 01:19:25;;;;;;;3.42;2.00;;;;;;;6.65;62.68;101083.53;5031974;28;20442;-45
2021/04/30 01:21:53;;;;;;;4.47;2.00;;;;;;;6.60;62.92;101085.59;5031521;28;20075;-45
2021/04/30 01:24:21;;;;;;;4.72;1.83;;;;;;;6.59;62.66;101084.75;5031824;28;20145;-45
2021/04/30 01:26:47;;;;;;;3.28;2.10;;;;;;;6.58;62.83;101085.91;5031554;28;20057;-45
2021/04/30 01:29:14;;;;;;;3.33;1.60;;;;;;;6.58;62.94;101083.16;5031115;28;20449;-45
2021/04/30 01:31:41;;;;;;;2.83;1.60;;;;;;;6.58;62.95;101088.66;5031710;28;20140;-45
2021/04/30 01:34:08;;;;;;;2.25;2.03;;;;;;;6.56;62.48;101085.41;5031492;28;20120;-45
2021/04/30 01:36:35;;;;;;;6.10;2.22;;;;;;;6.52;62.98;101078.88;5031621;28;20136;-45
2021/04/30 01:39:06;;;;;;;1.83;1.63;;;;;;;6.49;62.93;101084.19;5031548;28;20450;-45
2021/04/30 01:41:32;;;;;;;2.17;1.73;;;;;;;6.47;63.07;101079.00;5031600;28;20069;-46
2021/04/30 01:43:59;;;;;;;2.08;1.38;;;;;;;6.44;63.06;101079.63;5030416;28;20041;-46
2021/04/30 01:46:25;;;;;;;3.17;1.95;;;;;;;6.45;62.98;101084.00;5031563;28;20080;-45
2021/04/30 01:48:52;;;;;;;4.25;1.60;;;;;;;6.43;63.18;101083.50;5031329;28;20072;-46
2021/04/30 01:51:19;;;;;;;2.38;2.03;;;;;;;6.43;63.26;101077.19;5030998;28;20037;-45
2021/04/30 01:53:45;;;;;;;4.28;2.00;;;;;;;6.38;63.23;101078.09;5031083;28;20052;-46
2021/04/30 01:56:12;;;;;;;2.88;1.38;;;;;;;6.37;63.20;101083.91;5031315;28;20064;-47
2021/04/30 01:58:40;;;;;;;4.93;2.88;;;;;;;6.35;62.97;101078.75;5010498;28;20530;-51
2021/04/30 02:01:06;;;;;;;3.97;2.00;;;;;;;6.33;63.33;101083.72;5008612;28;20049;-45
2021/04/30 02:03:36;;;;;;;4.50;1.70;;;;;;;6.32;63.29;101082.09;5010022;28;20852;-45
2021/04/30 02:06:04;;;;;;;2.42;1.60;;;;;;;6.27;63.32;101084.97;5010878;28;20053;-45
2021/04/30 02:08:30;;;;;;;2.72;1.80;;;;;;;6.27;63.28;101079.47;5011633;28;20124;-45
2021/04/30 02:11:01;;;;;;;2.50;1.58;;;;;;;6.29;63.53;101079.97;5011474;28;20092;-45
2021/04/30 02:13:28;;;;;;;3.97;2.03;;;;;;;6.30;63.53;101086.28;5010994;28;20136;-45
2021/04/30 02:15:55;;;;;;;2.72;1.83;;;;;;;6.23;63.23;101083.94;5010597;28;20042;-47
2021/04/30 02:18:22;;;;;;;2.67;1.70;;;;;;;6.18;63.57;101084.06;5011581;28;20099;-47
2021/04/30 02:20:49;;;;;;;2.72;1.58;;;;;;;6.19;63.31;101084.88;5011286;28;20100;-46
2021/04/30 02:23:15;;;;;;;2.63;1.73;;;;;;;6.12;63.68;101090.78;5011370;28;20135;-45
2021/04/30 02:25:42;;;;;;;5.78;2.83;;;;;;;6.10;63.53;101082.84;5010735;28;20060;-47
2021/04/30 02:28:09;;;;;;;7.45;3.78;;;;;;;6.11;63.83;101092.72;5011149;28;20054;-45
2021/04/30 02:30:38;;;;;;;4.60;1.85;;;;;;;6.06;63.75;101089.28;5010620;28;20038;-46
2021/04/30 02:33:05;;;;;;;2.63;1.65;;;;;;;6.04;63.89;101078.56;5010761;28;20050;-45
2021/04/30 02:35:33;;;;;;;4.90;1.77;;;;;;;6.03;63.85;101076.13;5010707;28;20077;-45
2021/04/30 02:38:00;;;;;;;2.97;1.55;;;;;;;6.01;63.94;101079.19;4993657;28;20073;-45
2021/04/30 02:40:30;;;;;;;2.65;1.83;;;;;;;6.01;64.06;101083.88;5011399;28;20054;-45
2021/04/30 02:43:01;;;;;;;5.75;2.42;;;;;;;5.99;63.77;101086.09;5010925;28;20042;-46
2021/04/30 02:45:31;;;;;;;3.95;1.40;;;;;;;5.98;64.07;101090.78;5011346;28;20443;-45
2021/04/30 02:47:59;;;;;;;2.03;1.83;;;;;;;5.96;63.92;101089.47;5010884;28;20137;-45
2021/04/30 02:50:28;;;;;;;6.25;1.70;;;;;;;5.93;63.89;101079.91;5012895;28;20109;-45
2021/04/30 02:52:55;;;;;;;2.45;1.98;;;;;;;5.93;64.29;101088.13;5011052;28;20124;-44
2021/04/30 02:55:23;;;;;;;3.83;1.80;;;;;;;5.93;64.06;101087.34;5011103;28;20042;-45
2021/04/30 02:57:52;;;;;;;4.07;2.22;;;;;;;5.91;64.33;101084.06;5022631;28;20127;-45
2021/04/30 03:00:19;;;;;;;2.13;1.60;;;;;;;5.95;64.23;101090.59;5025411;28;20042;-45
2021/04/30 03:02:48;;;;;;;1.65;1.45;;;;;;;5.94;64.27;101083.47;5030620;28;20037;-45
2021/04/30 03:05:15;;;;;;;1.98;1.52;;;;;;;5.98;63.86;101087.25;5030282;28;20048;-47
2021/04/30 03:07:42;;;;;;;1.55;1.20;;;;;;;5.97;63.73;101086.41;5030251;28;20045;-45
2021/04/30 03:10:08;;;;;;;2.03;1.50;;;;;;;5.96;63.98;101081.22;5030525;28;20058;-45
2021/04/30 03:12:35;;;;;;;3.00;2.47;;;;;;;5.91;63.99;101087.63;5031130;28;20041;-44
2021/04/30 03:15:02;;;;;;;2.90;1.83;;;;;;;5.84;64.15;101080.91;5034540;28;20092;-45
2021/04/30 03:17:30;;;;;;;3.47;1.85;;;;;;;5.83;64.40;101087.50;5033768;28;20069;-49
2021/04/30 03:19:56;;;;;;;4.18;2.30;;;;;;;5.80;64.44;101079.88;5034405;28;20120;-45
2021/04/30 03:22:22;;;;;;;2.75;1.88;;;;;;;5.78;64.40;101079.34;5033880;28;20077;-45
2021/04/30 03:24:49;;;;;;;3.88;1.55;;;;;;;5.77;64.45;101075.78;5033649;28;20041;-45
2021/04/30 03:27:15;;;;;;;3.25;1.50;;;;;;;5.75;64.31;101079.97;5047076;28;20074;-45
2021/04/30 03:29:41;;;;;;;5.05;1.67;;;;;;;5.71;64.67;101078.97;5033005;28;20096;-45
2021/04/30 03:32:09;;;;;;;4.97;1.90;;;;;;;5.65;64.65;101077.41;5015464;28;20502;-45
2021/04/30 03:34:37;;;;;;;2.10;1.90;;;;;;;5.68;64.51;101069.41;5033097;28;20152;-45
2021/04/30 03:37:04;;;;;;;3.15;2.00;;;;;;;5.64;64.45;101073.06;5015852;28;20509;-45
2021/04/30 03:39:31;;;;;;;4.55;1.83;;;;;;;5.60;64.69;101067.34;5031701;28;20137;-47
2021/04/30 03:41:57;;;;;;;4.47;1.80;;;;;;;5.58;64.51;101063.28;5033337;28;20095;-45
2021/04/30 03:44:23;;;;;;;2.10;1.58;;;;;;;5.54;64.69;101069.38;5033100;28;20072;-49
2021/04/30 03:46:51;;;;;;;4.97;1.98;;;;;;;5.51;64.61;101069.97;5025272;28;20041;-45
2021/04/30 03:49:17;;;;;;;3.00;2.33;;;;;;;5.47;64.93;101059.91;5033199;28;20116;-47
2021/04/30 03:51:44;;;;;;;3.80;2.00;;;;;;;5.43;64.54;101062.44;5035542;28;20099;-50
2021/04/30 03:54:11;;;;;;;2.28;1.50;;;;;;;5.46;64.75;101059.09;5029474;28;20042;-47
2021/04/30 03:56:41;;;;;;;2.40;1.80;;;;;;;5.44;64.43;101057.78;5033521;28;20542;-47
2021/04/30 03:59:10;;;;;;;2.70;1.63;;;;;;;5.45;64.67;101060.19;5032013;28;20049;-45
2021/04/30 04:01:36;;;;;;;4.00;1.80;;;;;;;5.44;64.93;101057.78;5033240;28;20065;-46
2021/04/30 04:04:03;;;;;;;6.75;2.28;;;;;;;5.45;64.72;101056.66;5033192;28;20065;-49
2021/04/30 04:06:30;;;;;;;3.22;2.03;;;;;;;5.47;64.41;101052.50;5033099;28;20046;-46
2021/04/30 04:08:56;;;;;;;2.47;1.95;;;;;;;5.43;64.94;101062.44;5032520;28;20482;-45
2021/04/30 04:11:23;;;;;;;4.05;2.05;;;;;;;5.45;64.73;101060.19;5033558;28;20065;-47
2021/04/30 04:13:49;;;;;;;2.20;1.77;;;;;;;5.44;64.60;101063.28;5031991;28;20041;-45
2021/04/30 04:16:15;;;;;;;3.50;2.45;;;;;;;5.44;64.57;101058.59;5033404;28;20081;-45
2021/04/30 04:18:41;;;;;;;6.45;3.08;;;;;;;5.41;64.66;101064.69;5036255;28;20513;-46
2021/04/30 04:21:08;;;;;;;5.50;2.35;;;;;;;5.36;64.74;101063.97;5032221;28;20451;-46
2021/04/30 04:23:34;;;;;;;4.85;2.10;;;;;;;5.34;64.65;101064.28;5032617;28;20104;-45
2021/04/30 04:26:01;;;;;;;6.30;2.60;;;;;;;5.30;65.07;101063.25;5032847;28;20136;-47
2021/04/30 04:28:27;;;;;;;5.25;2.20;;;;;;;5.25;64.62;101066.09;5015011;28;20095;-45
2021/04/30 04:30:55;;;;;;;2.70;2.17;;;;;;;5.22;64.92;101069.44;5033133;28;20462;-45
2021/04/30 04:33:21;;;;;;;7.90;2.38;;;;;;;5.19;65.15;101064.53;5033258;28;20076;-48
2021/04/30 04:35:48;;;;;;;4.72;2.75;;;;;;;5.18;65.34;101067.59;5032535;28;20671;-45
2021/04/30 04:38:14;;;;;;;4.65;2.22;;;;;;;5.15;65.01;101071.75;5032650;28;20076;-46
2021/04/30 04:40:40;;;;;;;4.60;2.38;;;;;;;5.15;65.25;101071.75;5033020;28;20144;-46
2021/04/30 04:43:07;;;;;;;5.38;2.35;;;;;;;5.19;64.99;101072.78;5032390;28;20049;-47
2021/04/30 04:45:33;;;;;;;2.63;2.00;;;;;;;5.21;65.08;101075.22;5031839;28;20073;-44
2021/04/30 04:47:59;;;;;;;4.22;2.45;;;;;;;5.20;65.23;101071.66;5032379;28;20045;-47
2021/04/30 04:50:25;;;;;;;6.18;2.28;;;;;;;5.21;65.26;101067.81;5032735;28;20069;-47
2021/04/30 04:52:52;;;;;;;3.47;2.28;;;;;;;5.20;65.14;101076.34;5032364;28;20041;-45
2021/04/30 04:55:18;;;;;;;6.45;2.60;;;;;;;5.21;65.13;101078.78;5032759;28;20116;-45
2021/04/30 04:57:45;;;;;;;2.83;2.15;;;;;;;5.21;65.27;101080.72;5020401;28;20053;-45
2021/04/30 05:00:12;;;;;;;3.65;2.38;;;;;;;5.19;65.42;101083.75;5012643;28;20061;-46
2021/04/30 05:02:39;;;;;;;3.10;2.60;;;;;;;5.21;65.49;101084.28;5012054;28;20045;-45
2021/04/30 05:05:07;;;;;;;5.20;2.80;;;;;;;5.19;65.65;101082.97;5012130;28;20045;-45
2021/04/30 05:07:34;;;;;;;4.45;3.28;;;;;;;5.16;65.72;101083.56;5011679;28;20049;-45
2021/04/30 05:10:00;;;;;;;5.85;2.58;;;;;;;5.17;65.74;101075.00;5012273;28;20108;-46
2021/04/30 05:12:27;;;;;;;3.42;2.20;;;;;;;5.18;65.68;101076.66;5011526;28;20073;-46
2021/04/30 05:14:53;;;;;;;5.45;2.47;;;;;;;5.19;65.68;101080.22;5012597;28;20038;-45
2021/04/30 05:17:19;;;;;;;11.90;2.45;;;;;;;5.21;65.98;101083.47;5011950;28;20069;-45
2021/04/30 05:19:46;;;;;;;5.63;2.75;;;;;;;5.23;65.57;101079.31;5011927;28;20073;-47
2021/04/30 05:22:16;;;;;;;3.70;2.25;;;;;;;5.22;65.93;101091.38;5012447;28;20108;-46
2021/04/30 05:24:46;;;;;;;5.25;3.10;;;;;;;5.20;66.02;101088.13;4995021;28;20049;-47
2021/04/30 05:27:12;;;;;;;5.88;2.75;;;;;;;5.20;65.84;101090.88;5011756;28;20470;-45
2021/04/30 05:29:43;;;;;;;5.10;2.58;;;;;;;5.23;66.02;101087.53;5011749;28;20046;-48
2021/04/30 05:32:10;;;;;;;4.72;2.53;;;;;;;5.29;65.77;101091.81;5011822;28;20052;-48
2021/04/30 05:34:39;;;;;;;4.20;2.80;;;;;;;5.36;66.03;101096.91;5012373;28;20057;-46
2021/04/30 05:37:06;;;;;;;10.40;3.60;;;;;;;5.34;65.91;101094.47;4994180;28;20057;-45
2021/04/30 05:39:34;;;;;;;3.97;2.53;;;;;;;5.40;66.26;101096.00;5011779;28;20495;-49
2021/04/30 05:42:01;;;;;;;6.53;2.60;;;;;;;5.42;66.02;101098.47;5011498;28;20081;-46
2021/04/30 05:44:28;;;;;;;4.28;2.45;;;;;;;5.46;65.99;101104.97;5011722;28;20158;-45
2021/04/30 05:46:55;;;;;;;6.25;2.70;;;;;;;5.49;66.22;101094.19;5011922;28;20407;-45
2021/04/30 05:49:21;;;;;;;5.93;3.08;;;;;;;5.55;66.25;101100.41;5011734;28;20034;-46
2021/04/30 05:51:47;;;;;;;7.30;2.55;;;;;;;5.60;66.15;101102.25;5011725;28;20050;-45
2021/04/30 05:54:15;;;;;;;5.30;2.88;;;;;;;5.64;66.27;101098.56;5011907;28;20399;-45
2021/04/30 05:56:41;;;;;;;5.18;2.97;;;;;;;5.67;66.34;101105.38;5011389;28;20058;-45
2021/04/30 05:59:08;;;;;;;3.40;2.05;;;;;;;5.70;66.32;101107.53;5010850;28;20798;-46
2021/04/30 06:01:34;;;;;;;6.55;3.10;;;;;;;5.73;66.33;101101.44;5011877;28;20042;-46
2021/04/30 06:04:03;;;;;;;7.65;2.20;;;;;;;5.80;66.17;101110.09;5011265;28;20099;-46
2021/04/30 06:06:29;;;;;;;8.20;2.85;;;;;;;5.87;66.02;101110.53;5011923;28;20053;-44
2021/04/30 06:08:56;;;;;;;5.65;2.95;;;;;;;5.97;66.06;101099.34;5011231;28;20077;-46
2021/04/30 06:11:22;;;;;;;7.20;2.72;;;;;;;5.99;65.83;101106.16;5011267;28;20097;-46
2021/04/30 06:13:49;;;;;;;8.45;2.58;;;;;;;6.06;66.32;101092.03;5011349;28;20046;-46
2021/04/30 06:16:15;;;;;;;7.88;2.80;;;;;;;6.12;66.21;101102.59;5010676;28;20038;-47
2021/04/30 06:18:41;;;;;;;5.75;3.03;;;;;;;6.18;65.93;101110.72;5010862;28;20108;-46
2021/04/30 06:21:09;;;;;;;5.85;3.25;;;;;;;6.25;66.35;101100.94;5011635;28;20513;-45
2021/04/30 06:23:37;;;;;;;5.78;2.95;;;;;;;6.34;66.30;101104.59;5011215;28;20398;-45
2021/04/30 06:26:04;;;;;;;5.25;2.88;;;;;;;6.46;66.11;101102.13;5010941;28;20081;-46
2021/04/30 06:28:30;;;;;;;3.05;2.47;;;;;;;6.62;66.13;101100.66;5010534;28;20144;-47
2021/04/30 06:30:56;;;;;;;5.40;2.85;;;;;;;6.78;65.95;101103.06;5011744;28;20089;-45
2021/04/30 06:33:23;;;;;;;5.20;2.63;;;;;;;6.92;65.95;101112.06;5010699;28;20450;-48
2021/04/30 06:35:54;;;;;;;4.55;2.70;;;;;;;7.08;65.88;101107.81;5010593;28;20468;-45
2021/04/30 06:38:20;;;;;;;7.07;3.30;;;;;;;7.21;65.43;101109.69;5010728;28;20101;-47
2021/04/30 06:40:46;;;;;;;7.82;3.22;;;;;;;7.31;65.63;101113.00;5011765;28;20073;-47
2021/04/30 06:43:13;;;;;;;6.53;3.00;;;;;;;7.46;65.28;101114.56;5010677;28;20387;-46
2021/04/30 06:45:39;;;;;;;9.75;3.13;;;;;;;7.58;65.21;101117.53;5010874;28;20136;-47
2021/04/30 06:48:06;;;;;;;5.38;3.88;;;;;;;7.68;65.38;101125.53;5012624;28;20096;-47
2021/04/30 06:50:33;;;;;;;6.53;3.85;;;;;;;7.77;65.01;101123.66;5014590;28;20076;-45
2021/04/30 06:52:59;;;;;;;7.90;4.25;;;;;;;7.80;65.15;101128.53;5014484;28;20411;-47
2021/04/30 06:55:26;;;;;;;6.35;3.65;;;;;;;7.85;64.98;101127.56;4997466;28;20373;-45
2021/04/30 06:57:52;;;;;;;7.50;4.18;;;;;;;7.86;65.21;101132.75;5026307;28;20160;-46
2021/04/30 07:00:19;;;;;;;8.93;4.03;;;;;;;7.87;65.02;101137.16;5034570;28;20450;-48
2021/04/30 07:02:45;;;;;;;6.85;3.63;;;;;;;7.87;64.92;101133.56;5033993;28;20049;-45
2021/04/30 07:05:13;;;;;;;8.18;3.47;;;;;;;7.92;64.95;101125.97;5032226;28;20056;-46
2021/04/30 07:07:40;;;;;;;7.53;3.90;;;;;;;7.98;64.53;101127.47;5034024;28;20157;-47
2021/04/30 07:10:08;;;;;;;5.15;3.08;;;;;;;7.98;64.61;101121.94;5033190;28;20157;-46
2021/04/30 07:12:38;;;;;;;11.50;2.97;;;;;;;8.02;64.89;101130.41;5033175;28;20060;-46
2021/04/30 07:15:08;;;;;;;7.45;2.90;;;;;;;8.09;64.71;101127.19;5033204;28;20128;-45
2021/04/30 07:17:35;;;;;;;7.50;3.50;;;;;;;8.12;64.61;101121.03;5016218;28;20446;-45
2021/04/30 07:20:02;;;;;;;6.95;3.63;;;;;;;8.17;64.68;101124.44;5032841;28;20077;-46
2021/04/30 07:22:29;;;;;;;6.05;3.45;;;;;;;8.25;64.69;101128.38;5032939;28;20104;-45
2021/04/30 07:24:55;;;;;;;5.43;3.45;;;;;;;8.34;64.72;101129.25;5033690;28;20097;-48
2021/04/30 07:27:23;;;;;;;18.50;5.72;;;;;;;8.40;64.65;101126.00;5033580;28;20099;-46
2021/04/30 07:29:49;;;;;;;6.88;4.25;;;;;;;8.45;64.37;101125.03;5033669;28;20100;-46
2021/04/30 07:32:19;;;;;;;10.50;4.72;;;;;;;8.48;64.13;101132.66;5032467;28;20041;-50
2021/04/30 07:34:46;;;;;;;8.85;5.57;;;;;;;8.47;64.18;101139.34;5011833;28;20048;-49
2021/04/30 07:37:13;;;;;;;13.43;4.65;;;;;;;8.52;64.13;101148.25;5026309;28;20039;-48
2021/04/30 07:39:40;;;;;;;5.43;3.47;;;;;;;8.56;64.24;101140.16;5030753;28;20052;-46
2021/04/30 07:42:08;;;;;;;7.78;2.97;;;;;;;8.61;64.84;101137.22;5049192;28;20126;-46
2021/04/30 07:44:37;;;;;;;12.02;3.10;;;;;;;8.72;64.83;101140.50;5033010;28;20528;-48
2021/04/30 07:47:04;;;;;;;5.53;3.20;;;;;;;8.80;65.03;101147.97;5031751;28;20050;-47
2021/04/30 07:49:31;;;;;;;7.63;3.10;;;;;;;8.93;64.88;101135.97;5032256;28;20707;-48
2021/04/30 07:51:58;;;;;;;7.72;3.42;;;;;;;9.03;64.90;101138.38;5039629;28;20096;-52
2021/04/30 07:54:26;;;;;;;4.20;2.78;;;;;;;9.10;64.86;101136.78;5029641;28;20045;-47
2021/04/30 07:56:57;;;;;;;6.03;3.50;;;;;;;9.18;64.98;101135.97;5027225;28;20057;-48
2021/04/30 07:59:24;;;;;;;4.22;3.47;;;;;;;9.19;65.30;101134.81;5026666;28;20634;-45
2021/04/30 08:01:51;;;;;;;6.68;3.30;;;;;;;9.23;65.70;101134.16;5012927;28;20052;-48
2021/04/30 08:04:17;;;;;;;4.55;3.15;;;;;;;9.31;66.73;101136.94;5028067;28;20073;-46
2021/04/30 08:06:43;;;;;;;7.53;3.30;;;;;;;9.47;67.66;101128.94;5012183;28;20434;-45
2021/04/30 08:09:10;;;;;;;3.13;2.47;;;;;;;9.65;68.65;101130.50;5031309;28;20041;-43
2021/04/30 08:11:36;;;;;;;3.85;3.28;;;;;;;9.93;69.20;101134.47;5029398;28;20112;-44
2021/04/30 08:14:07;;;;;;;6.00;3.17;;;;;;;10.22;69.58;101142.84;5031459;28;20173;-46
2021/04/30 08:16:34;;;;;;;3.53;2.83;;;;;;;10.47;68.45;101134.72;5048528;28;20485;-48
2021/04/30 08:19:01;;;;;;;4.88;3.35;;;;;;;10.76;67.77;101143.00;5032577;28;20057;-44
2021/04/30 08:21:29;;;;;;;5.68;2.60;;;;;;;11.01;66.33;101144.78;5013077;28;20371;-44
2021/04/30 08:23:56;;;;;;;5.68;2.83;;;;;;;11.16;64.70;101141.38;5013660;28;20053;-44
2021/04/30 08:26:23;;;;;;;4.47;2.67;;;;;;;11.11;63.47;101138.81;5036362;28;20612;-46
2021/04/30 08:28:50;;;;;;;5.68;2.40;;;;;;;11.01;62.82;101140.03;5048252;28;20041;-46
2021/04/30 08:31:16;;;;;;;6.88;2.72;;;;;;;11.04;62.41;101144.09;5030164;28;20045;-45
2021/04/30 08:33:43;;;;;;;9.10;3.05;;;;;;;11.00;62.16;101143.16;5020786;28;20406;-44
2021/04/30 08:36:09;;;;;;;8.10;3.50;;;;;;;10.85;61.88;101152.06;5012330;28;20107;-44
2021/04/30 08:38:38;;;;;;;3.72;2.30;;;;;;;10.70;61.85;101150.69;5030673;28;20055;-45
2021/04/30 08:41:04;;;;;;;7.82;3.78;;;;;;;10.76;61.70;101143.00;5029444;28;20524;-44
2021/04/30 08:43:31;;;;;;;4.80;2.30;;;;;;;11.36;62.08;101148.84;5033789;28;20073;-44
2021/04/30 08:45:57;;;;;;;3.03;2.22;;;;;;;11.96;62.09;101147.44;5028096;28;20502;-45
2021/04/30 08:48:28;;;;;;;5.07;2.63;;;;;;;12.14;61.46;101154.41;5029158;28;20926;-46
2021/04/30 08:50:55;;;;;;;3.28;2.50;;;;;;;12.17;60.89;101142.59;5036718;28;20045;-44
2021/04/30 08:53:22;;;;;;;3.65;1.90;;;;;;;12.00;60.10;101153.91;5029832;28;20124;-45
2021/04/30 08:55:51;;;;;;;4.00;2.28;;;;;;;11.85;60.19;101141.53;5028165;28;20049;-43
2021/04/30 08:58:23;;;;;;;4.10;2.20;;;;;;;11.78;59.86;101141.25;5029347;28;20084;-43
2021/04/30 09:00:51;;;;;;;5.57;2.38;;;;;;;11.69;59.70;101145.28;5028650;28;20052;-45
2021/04/30 09:03:17;;;;;;;5.10;1.90;;;;;;;11.75;59.47;101146.72;5023100;28;20041;-46
2021/04/30 09:05:50;;;;;;;3.45;1.27;;;;;;;11.89;58.57;101144.41;5025653;28;20153;-43
2021/04/30 09:08:18;;;;;;;2.65;1.35;;;;;;;12.07;58.23;101149.41;5027561;28;20064;-45
2021/04/30 09:11:04;;;;;;;3.47;0.93;;;;;;;12.14;57.56;101143.28;5028903;28;20049;-44
2021/04/30 09:13:31;;;;;;;0.63;0.50;;;;;;;12.12;56.94;101154.75;5029117;28;20045;-44
2021/04/30 09:16:06;;;;;;;2.00;0.60;;;;;;;11.99;55.03;101157.84;5029393;28;20056;-43
2021/04/30 09:18:33;;;;;;;0.20;0.17;;;;;;;11.66;54.84;101168.13;5009663;28;20041;-46
2021/04/30 09:21:08;;;;;;;0.40;0.40;;;;;;;11.49;53.29;101166.38;5028882;28;20077;-47
2021/04/30 09:23:41;;;;;;;1.70;0.30;;;;;;;11.25;54.85;101169.03;5029521;28;20057;-49
2021/04/30 09:26:21;;;;;;;0.75;0.50;;;;;;;10.99;55.12;101180.31;5027259;28;20108;-44
2021/04/30 09:29:12;;;;;;;0.95;0.28;;;;;;;10.50;55.77;101189.44;5031390;28;20518;-46
2021/04/30 09:31:43;;;;;;;1.23;0.30;;;;;;;10.06;57.42;101180.47;5009354;28;20152;-47
2021/04/30 09:34:28;;;;;;;0.73;0.30;;;;;;;9.80;57.87;101174.22;5027893;28;20368;-45
2021/04/30 09:36:55;;;;;;;0.52;0.30;;;;;;;9.66;57.63;101170.84;5028062;28;20041;-50
2021/04/30 09:39:22;;;;;;;0.68;0.38;;;;;;;9.56;58.02;101180.28;5030523;28;20048;-50
2021/04/30 09:42:16;;;;;;;2.83;0.43;;;;;;;9.40;58.95;101181.13;5026362;28;20514;-46
2021/04/30 09:44:45;;;;;;;0.73;0.60;;;;;;;9.27;58.94;101187.63;5027280;28;20041;-45
2021/04/30 09:47:22;;;;;;;0.40;0.30;;;;;;;9.13;59.35;101180.31;5029365;28;20092;-45
2021/04/30 09:49:51;;;;;;;2.33;1.08;;;;;;;9.05;59.60;101178.34;5029340;28;20056;-45
2021/04/30 09:52:20;;;;;;;1.63;0.73;;;;;;;9.07;60.31;101178.88;5028221;28;20085;-46
2021/04/30 09:54:47;;;;;;;0.43;0.32;;;;;;;9.15;59.97;101177.22;5029041;28;20132;-48
2021/04/30 09:57:15;;;;;;;5.03;1.10;;;;;;;9.27;60.09;101169.09;5029981;28;20521;-48
2021/04/30 09:59:54;;;;;;;5.28;0.93;;;;;;;9.28;60.68;101172.69;5028872;28;20504;-47
2021/04/30 10:02:29;;;;;;;3.75;0.60;;;;;;;9.15;61.60;101188.28;5028463;28;20053;-46
2021/04/30 10:04:57;;;;;;;1.37;0.60;;;;;;;9.09;61.49;101189.56;5029157;28;20061;-49
2021/04/30 10:07:29;;;;;;;3.95;0.90;;;;;;;9.04;61.55;101186.97;5024519;28;20077;-47
2021/04/30 10:10:09;;;;;;;0.95;0.45;;;;;;;8.93;61.87;101197.53;5027691;28;20096;-50
2021/04/30 10:12:38;;;;;;;4.57;0.98;;;;;;;8.81;61.89;101188.25;5028032;28;20072;-43
2021/04/30 10:15:07;;;;;;;7.20;1.20;;;;;;;8.72;61.85;101192.94;5028857;28;20042;-43
2021/04/30 10:17:35;;;;;;;5.32;1.02;;;;;;;8.53;62.14;101199.56;5010708;28;20481;-46
2021/04/30 10:20:05;;;;;;;2.88;0.82;;;;;;;8.39;62.70;101198.06;5028066;28;20049;-50
2021/04/30 10:22:42;;;;;;;4.28;0.75;;;;;;;8.23;62.24;101208.69;5029897;28;20049;-48
2021/04/30 10:25:18;;;;;;;2.25;1.08;;;;;;;8.05;62.56;101204.19;5031684;28;20044;-44
2021/04/30 10:27:47;;;;;;;5.57;0.80;;;;;;;7.95;62.87;101210.81;5014562;28;20283;-44
2021/04/30 10:30:32;;;;;;;4.43;0.93;;;;;;;7.88;63.16;101204.94;5035928;28;20501;-46
2021/04/30 10:33:02;;;;;;;2.72;0.98;;;;;;;7.90;63.38;101208.19;5029202;28;20456;-46
2021/04/30 10:35:53;;;;;;;3.88;0.80;;;;;;;7.90;63.07;101202.69;5015112;28;20119;-46
2021/04/30 10:38:23;;;;;;;1.58;0.60;;;;;;;7.85;62.95;101199.25;5014341;28;20054;-45
2021/04/30 10:41:06;;;;;;;1.02;0.52;;;;;;;7.81;63.57;101204.56;5032032;28;20076;-46
2021/04/30 10:43:33;;;;;;;4.13;0.60;;;;;;;7.83;63.71;101201.50;5032918;28;20041;-44
2021/04/30 10:46:15;;;;;;;0.98;0.60;;;;;;;7.86;64.39;101198.91;5032620;28;20045;-54
2021/04/30 10:49:11;;;;;;;1.10;0.80;;;;;;;8.02;65.47;101191.06;5032199;28;20040;-47
2021/04/30 10:51:39;;;;;;;1.70;0.40;;;;;;;8.23;63.91;101194.06;5014347;28;20037;-47
2021/04/30 10:54:26;;;;;;;3.05;0.50;;;;;;;8.37;65.18;101192.03;5031302;28;20049;-51
2021/04/30 10:57:03;;;;;;;1.42;0.55;;;;;;;8.48;64.82;101187.84;5029626;28;20061;-46
2021/04/30 10:59:37;;;;;;;1.20;1.00;;;;;;;8.73;64.90;101191.81;5032004;28;20052;-45
2021/04/30 11:02:34;;;;;;;1.88;0.50;;;;;;;9.14;65.35;101181.94;5016647;28;20061;-47
2021/04/30 11:07:53;;;;;;;0.38;0.35;;;;;;;9.55;64.35;101175.09;5027669;28;20753;-45
2021/04/30 11:10:20;;;;;;;1.38;0.82;;;;;;;9.68;64.52;101182.38;5030121;28;20414;-45
2021/04/30 11:13:07;;;;;;;2.35;1.52;;;;;;;9.83;64.86;101168.03;5029963;28;20189;-45
2021/04/30 11:15:46;;;;;;;3.22;0.93;;;;;;;10.06;65.46;101176.91;5031318;28;20115;-45
2021/04/30 11:18:19;;;;;;;3.17;1.00;;;;;;;10.34;65.07;101167.03;5025788;28;20146;-46
2021/04/30 11:21:06;;;;;;;1.80;1.10;;;;;;;10.54;65.78;101160.72;5020136;28;20053;-47
2021/04/30 11:23:35;;;;;;;0.75;0.75;;;;;;;10.61;65.46;101160.22;5005999;28;20095;-45
2021/04/30 11:26:09;;;;;;;2.38;0.95;;;;;;;10.59;65.03;101165.28;5013950;28;20049;-46
2021/04/30 11:28:41;;;;;;;1.70;1.08;;;;;;;10.70;64.79;101166.50;5033059;28;20084;-45
2021/04/30 11:31:24;;;;;;;2.00;1.10;;;;;;;10.81;64.87;101170.50;5032581;28;20073;-46
2021/04/30 11:34:09;;;;;;;2.08;1.00;;;;;;;10.93;63.95;101165.84;5011676;28;20088;-45
2021/04/30 11:36:39;;;;;;;1.20;0.90;;;;;;;10.98;63.98;101167.63;5030290;28;20575;-44
2021/04/30 11:39:20;;;;;;;0.95;0.80;;;;;;;11.07;63.99;101164.78;5025906;28;20061;-46
2021/04/30 11:41:47;;;;;;;4.35;1.10;;;;;;;11.17;64.33;101165.19;4999153;28;20055;-47